Time;durP1;ratioP1;P1;durP2;ratioP2;P2;SDS_P1;SDS_P2;PMS_P1;PMS_P2;Temp;Humidity;BMP_temperature;BMP_pressure;BME280_temperature;BME280_humidity;BME280_pressure;Samples;Min_cycle;Max_cycle;Signal;HPM_P1;HPM_P2
2021/12/10 00:00:24;;;;;;;11.20;4.03;;;4.30;99.90;;;;;;5006335;28;20034;-72
2021/12/10 00:02:50;;;;;;;10.43;3.42;;;4.20;99.90;;;;;;5006781;28;20038;-71
2021/12/10 00:05:28;;;;;;;12.05;4.43;;;4.20;99.90;;;;;;5006805;28;20026;-70
2021/12/10 00:07:55;;;;;;;8.13;3.53;;;4.20;99.90;;;;;;5005354;28;20069;-71
2021/12/10 00:10:28;;;;;;;7.85;3.53;;;4.20;99.90;;;;;;5004614;28;20475;-71
2021/12/10 00:12:54;;;;;;;6.13;3.05;;;4.20;99.90;;;;;;5006685;28;20042;-71
2021/12/10 00:15:24;;;;;;;9.20;3.53;;;4.20;99.90;;;;;;5006710;28;20041;-74
2021/12/10 00:17:51;;;;;;;14.70;3.67;;;4.20;99.90;;;;;;5004658;28;20101;-73
2021/12/10 00:20:19;;;;;;;8.98;3.58;;;4.20;99.90;;;;;;5004907;28;20030;-72
2021/12/10 00:22:54;;;;;;;11.23;4.45;;;4.20;99.90;;;;;;5006122;28;20402;-71
2021/12/10 00:25:24;;;;;;;7.25;2.85;;;4.20;99.90;;;;;;5006373;28;20056;-72
2021/12/10 00:27:52;;;;;;;19.25;3.67;;;4.20;99.90;;;;;;5006189;28;20030;-71
2021/12/10 00:30:27;;;;;;;16.20;3.67;;;4.10;99.90;;;;;;5006234;28;20106;-73
2021/12/10 00:33:09;;;;;;;;;;;4.10;99.90;;;;;;5006287;28;20126;-72
2021/12/10 00:35:35;;;;;;;11.82;3.90;;;4.10;99.90;;;;;;5005727;28;19906;-71
2021/12/10 00:38:01;;;;;;;11.73;3.65;;;4.10;99.90;;;;;;5005851;28;20073;-72
2021/12/10 00:40:27;;;;;;;8.98;3.67;;;4.10;99.90;;;;;;5005562;28;20030;-71
2021/12/10 00:42:53;;;;;;;6.25;3.15;;;4.10;99.90;;;;;;5004680;28;20031;-72
2021/12/10 00:45:21;;;;;;;6.80;3.45;;;4.10;99.90;;;;;;5006035;28;20422;-72
2021/12/10 00:47:48;;;;;;;10.50;2.70;;;4.10;99.90;;;;;;5006089;28;20022;-72
2021/12/10 00:50:21;;;;;;;11.13;3.97;;;4.10;99.90;;;;;;5004793;28;20026;-72
2021/12/10 00:52:47;;;;;;;9.00;3.85;;;4.10;99.90;;;;;;5005861;28;20040;-71
2021/12/10 00:55:14;;;;;;;9.10;3.80;;;4.10;99.90;;;;;;5006048;28;20018;-71
2021/12/10 00:57:40;;;;;;;9.55;3.60;;;4.10;99.90;;;;;;5005357;28;20034;-71
2021/12/10 01:00:10;;;;;;;9.05;3.63;;;4.10;99.90;;;;;;5004181;28;20057;-70
2021/12/10 01:02:35;;;;;;;13.95;3.70;;;4.10;99.90;;;;;;5005592;28;20394;-70
2021/12/10 01:05:01;;;;;;;5.45;2.80;;;4.10;99.90;;;;;;5005057;28;20033;-70
2021/12/10 01:07:30;;;;;;;4.97;2.58;;;4.10;99.90;;;;;;5004925;28;20066;-72
2021/12/10 01:09:58;;;;;;;9.70;3.30;;;4.10;99.90;;;;;;5005408;28;20037;-72
2021/12/10 01:12:26;;;;;;;6.65;2.83;;;4.10;99.90;;;;;;5005483;28;20479;-72
2021/12/10 01:26:24;;;;;;;18.27;3.72;;;4.10;99.90;;;;;;5005158;28;20103;-71
2021/12/10 01:28:57;;;;;;;13.48;3.70;;;4.10;99.90;;;;;;5005367;28;20457;-71
2021/12/10 01:31:23;;;;;;;6.85;2.38;;;4.10;99.90;;;;;;5005042;28;20076;-72
2021/12/10 01:33:52;;;;;;;7.05;3.60;;;4.10;99.90;;;;;;5005416;28;20034;-71
2021/12/10 01:36:18;;;;;;;5.70;2.72;;;4.10;99.90;;;;;;5005537;28;20034;-71
2021/12/10 01:38:48;;;;;;;7.75;3.17;;;4.10;99.90;;;;;;5005362;28;20060;-70
2021/12/10 01:41:17;;;;;;;7.72;3.05;;;4.10;99.90;;;;;;5004594;28;20026;-70
2021/12/10 01:43:44;;;;;;;6.40;3.05;;;4.10;99.90;;;;;;5005137;28;20041;-71
2021/12/10 01:46:13;;;;;;;6.47;3.17;;;4.10;99.90;;;;;;5004961;28;20533;-71
2021/12/10 01:48:46;;;;;;;17.70;3.30;;;4.10;99.90;;;;;;5004907;28;20022;-71
2021/12/10 01:51:15;;;;;;;6.68;2.97;;;4.10;99.90;;;;;;5004044;28;20034;-70
2021/12/10 01:53:43;;;;;;;8.27;4.47;;;4.10;99.90;;;;;;5005144;28;20129;-70
2021/12/10 01:56:18;;;;;;;11.82;3.75;;;4.10;99.90;;;;;;5004844;28;20038;-71
2021/12/10 01:58:46;;;;;;;8.98;3.63;;;4.10;99.90;;;;;;5005089;28;20034;-69
2021/12/10 02:01:29;;;;;;;18.48;3.30;;;4.10;99.90;;;;;;5005453;28;20026;-70
2021/12/10 02:03:55;;;;;;;11.45;3.78;;;4.10;99.90;;;;;;5007515;28;20531;-72
2021/12/10 02:06:22;;;;;;;13.18;4.18;;;4.00;99.90;;;;;;5009124;28;20041;-71
2021/12/10 02:08:49;;;;;;;9.52;3.67;;;4.00;99.90;;;;;;5008877;28;20026;-71
2021/12/10 02:11:16;;;;;;;9.57;3.55;;;4.00;99.90;;;;;;5008831;28;20360;-70
2021/12/10 02:13:42;;;;;;;11.50;4.10;;;4.00;99.90;;;;;;5008631;28;20059;-71
2021/12/10 02:16:08;;;;;;;6.82;3.50;;;4.00;99.90;;;;;;5008270;28;20098;-70
2021/12/10 02:18:34;;;;;;;11.68;2.97;;;4.00;99.90;;;;;;5008074;28;20554;-70
2021/12/10 02:21:02;;;;;;;14.50;3.70;;;4.10;99.90;;;;;;5008720;28;20030;-71
2021/12/10 02:23:35;;;;;;;8.35;3.67;;;4.00;99.90;;;;;;5007697;28;20034;-70
2021/12/10 02:26:03;;;;;;;9.68;3.70;;;4.00;99.90;;;;;;5008366;28;20023;-71
2021/12/10 02:28:29;;;;;;;7.72;3.42;;;4.00;99.90;;;;;;5007780;28;20034;-70
2021/12/10 02:30:56;;;;;;;9.88;3.80;;;4.00;99.90;;;;;;5008246;28;20026;-71
2021/12/10 02:33:22;;;;;;;9.77;3.47;;;4.10;99.90;;;;;;5007910;28;20029;-72
2021/12/10 02:35:50;;;;;;;5.65;2.90;;;4.10;99.90;;;;;;5008244;28;20033;-72
2021/12/10 02:38:17;;;;;;;15.23;4.43;;;4.00;99.90;;;;;;5008475;28;20074;-71
2021/12/10 02:40:46;;;;;;;8.20;3.13;;;4.00;99.90;;;;;;5008486;28;20529;-72
2021/12/10 02:43:13;;;;;;;7.55;3.88;;;4.10;99.90;;;;;;5007549;28;20065;-70
2021/12/10 02:45:43;;;;;;;9.75;3.10;;;4.00;99.90;;;;;;5008128;28;20426;-71
2021/12/10 02:48:08;;;;;;;4.88;2.72;;;4.00;99.90;;;;;;5006479;28;20042;-72
2021/12/10 02:50:35;;;;;;;4.05;2.17;;;4.00;99.90;;;;;;5008024;28;20034;-70
2021/12/10 02:53:02;;;;;;;8.88;3.45;;;4.00;99.90;;;;;;5008006;28;20046;-71
2021/12/10 02:55:29;;;;;;;13.77;3.17;;;4.00;99.90;;;;;;5008186;28;20086;-72
2021/12/10 02:57:58;;;;;;;11.63;3.92;;;3.90;99.90;;;;;;5007728;28;20561;-71
2021/12/10 03:00:31;;;;;;;9.18;3.03;;;3.90;99.90;;;;;;5006708;28;20030;-72
2021/12/10 03:02:58;;;;;;;7.32;3.38;;;3.90;99.90;;;;;;5007681;28;20034;-72
2021/12/10 03:05:24;;;;;;;6.75;2.60;;;3.90;99.90;;;;;;5007684;28;20034;-71
2021/12/10 03:07:51;;;;;;;9.25;3.85;;;3.90;99.90;;;;;;5005953;28;20061;-74
2021/12/10 03:10:25;;;;;;;17.52;3.88;;;3.90;99.90;;;;;;5007556;28;20501;-71
2021/12/10 03:12:51;;;;;;;10.53;3.73;;;3.90;99.90;;;;;;5006625;28;20042;-70
2021/12/10 03:15:21;;;;;;;8.90;3.70;;;4.00;99.90;;;;;;5007643;28;20036;-72
2021/12/10 03:17:48;;;;;;;8.73;3.63;;;4.00;99.90;;;;;;5007182;28;20509;-72
2021/12/10 03:20:17;;;;;;;9.75;3.38;;;4.00;99.90;;;;;;5006215;28;20034;-72
2021/12/10 03:22:43;;;;;;;8.48;3.53;;;4.00;99.90;;;;;;5007486;28;20054;-71
2021/12/10 03:25:11;;;;;;;6.43;3.30;;;4.00;99.90;;;;;;5007263;28;20038;-71
2021/12/10 03:27:38;;;;;;;9.35;3.33;;;4.00;99.90;;;;;;5007072;28;20037;-72
2021/12/10 03:30:11;;;;;;;9.52;2.92;;;4.00;99.90;;;;;;5007324;28;20119;-71
2021/12/10 03:32:39;;;;;;;7.55;3.53;;;3.90;99.90;;;;;;5007244;28;20052;-71
2021/12/10 03:35:09;;;;;;;22.95;4.28;;;3.90;99.90;;;;;;5007164;28;20117;-71
2021/12/10 03:37:38;;;;;;;9.63;3.67;;;3.90;99.90;;;;;;5005853;28;20045;-70
2021/12/10 03:40:06;;;;;;;7.55;3.38;;;4.00;99.90;;;;;;5007228;28;20030;-72
2021/12/10 03:42:31;;;;;;;11.10;2.90;;;3.90;99.90;;;;;;5007057;28;20026;-71
2021/12/10 03:44:57;;;;;;;5.53;2.40;;;4.00;99.90;;;;;;5005687;28;20026;-71
2021/12/10 03:47:23;;;;;;;17.50;3.88;;;4.00;99.90;;;;;;5006920;28;20094;-70
2021/12/10 03:49:49;;;;;;;7.20;3.00;;;4.00;99.90;;;;;;5005839;28;20489;-71
2021/12/10 03:52:15;;;;;;;9.32;3.95;;;4.00;99.90;;;;;;5006822;28;20037;-72
2021/12/10 03:54:42;;;;;;;8.52;2.55;;;4.00;99.90;;;;;;5006374;28;20050;-72
2021/12/10 03:57:09;;;;;;;15.38;4.43;;;4.00;99.90;;;;;;5006825;28;20042;-73
2021/12/10 03:59:36;;;;;;;6.75;3.17;;;4.00;99.90;;;;;;5006287;28;20231;-72
2021/12/10 04:02:04;;;;;;;12.15;4.68;;;4.00;99.90;;;;;;5006772;28;20095;-73
2021/12/10 04:04:37;;;;;;;7.28;3.28;;;3.90;99.90;;;;;;5006056;28;20029;-70
2021/12/10 04:07:07;;;;;;;8.02;3.80;;;3.90;99.90;;;;;;5006167;28;20030;-71
2021/12/10 04:09:33;;;;;;;6.97;2.28;;;3.90;99.90;;;;;;5005188;28;20031;-70
2021/12/10 04:11:59;;;;;;;9.50;3.50;;;3.90;99.90;;;;;;5006259;28;20475;-72
2021/12/10 04:14:25;;;;;;;6.35;2.85;;;3.90;99.90;;;;;;5006358;28;20030;-72
2021/12/10 04:16:56;;;;;;;7.13;2.97;;;3.80;99.90;;;;;;5006265;28;20042;-71
2021/12/10 04:19:26;;;;;;;10.45;3.50;;;3.80;99.90;;;;;;5005149;28;20077;-71
2021/12/10 04:21:56;;;;;;;7.97;3.35;;;3.80;99.90;;;;;;5006499;28;20033;-72
2021/12/10 04:24:25;;;;;;;8.60;3.05;;;3.80;99.90;;;;;;5005035;28;20121;-72
2021/12/10 04:26:53;;;;;;;10.32;3.53;;;3.70;99.90;;;;;;5006330;28;20113;-72
2021/12/10 04:29:20;;;;;;;7.97;3.60;;;3.70;99.90;;;;;;5006161;28;20037;-71
2021/12/10 04:31:51;;;;;;;5.88;2.80;;;3.70;99.90;;;;;;5005696;28;20541;-71
2021/12/10 04:34:18;;;;;;;12.20;4.00;;;3.60;99.90;;;;;;5006341;28;20038;-71
2021/12/10 04:36:44;;;;;;;7.65;3.08;;;3.60;99.90;;;;;;5005681;28;20069;-71
2021/12/10 04:39:10;;;;;;;16.60;3.78;;;3.70;99.90;;;;;;5006109;28;20086;-71
2021/12/10 04:41:36;;;;;;;5.68;3.05;;;3.70;99.90;;;;;;5005982;28;20030;-70
2021/12/10 04:44:02;;;;;;;9.55;3.88;;;3.70;99.90;;;;;;5005854;28;20387;-71
2021/12/10 04:46:28;;;;;;;8.70;3.58;;;3.70;99.90;;;;;;5005623;28;20034;-72
2021/12/10 04:48:58;;;;;;;10.93;4.30;;;3.70;99.90;;;;;;5004557;28;20095;-70
2021/12/10 04:51:28;;;;;;;8.10;2.35;;;3.70;99.90;;;;;;5005573;28;20117;-71
2021/12/10 04:53:56;;;;;;;19.23;3.03;;;3.60;99.90;;;;;;5005854;28;20072;-71
2021/12/10 04:56:23;;;;;;;12.43;3.30;;;3.70;99.90;;;;;;5005740;28;20459;-70
2021/12/10 04:58:49;;;;;;;7.28;3.67;;;3.70;99.90;;;;;;5005785;28;20030;-72
2021/12/10 05:01:16;;;;;;;7.65;3.03;;;3.70;99.90;;;;;;5005681;28;20056;-72
2021/12/10 05:03:41;;;;;;;11.65;3.83;;;3.70;99.90;;;;;;5005534;28;20026;-73
2021/12/10 05:06:13;;;;;;;6.80;3.10;;;3.60;99.90;;;;;;5005278;28;20037;-71
2021/12/10 05:08:40;;;;;;;10.55;3.58;;;3.60;99.90;;;;;;5005319;28;20034;-73
2021/12/10 05:11:08;;;;;;;6.68;3.47;;;3.60;99.90;;;;;;5005524;28;20117;-71
2021/12/10 05:13:35;;;;;;;12.13;3.47;;;3.60;99.90;;;;;;5005399;28;20033;-72
2021/12/10 05:16:01;;;;;;;7.88;3.20;;;3.60;99.90;;;;;;5005324;28;20026;-71
2021/12/10 05:18:30;;;;;;;7.38;3.28;;;3.60;99.90;;;;;;5004889;28;20050;-72
2021/12/10 05:20:57;;;;;;;8.30;3.63;;;3.60;99.90;;;;;;5004012;28;20402;-71
2021/12/10 05:23:23;;;;;;;10.50;3.70;;;3.60;99.90;;;;;;5005269;28;20031;-71
2021/12/10 05:25:52;;;;;;;10.77;4.30;;;3.70;99.90;;;;;;5005345;28;20026;-72
2021/12/10 05:28:19;;;;;;;4.32;2.67;;;3.70;99.90;;;;;;5005371;28;20037;-70
2021/12/10 05:30:49;;;;;;;11.13;3.40;;;3.70;99.90;;;;;;5005294;28;20041;-71
2021/12/10 05:33:17;;;;;;;10.15;3.53;;;3.70;99.90;;;;;;5005534;28;20080;-71
2021/12/10 05:35:46;;;;;;;6.35;3.42;;;3.60;99.90;;;;;;5005397;28;20023;-71
2021/12/10 05:38:12;;;;;;;19.55;3.97;;;3.60;99.90;;;;;;5008335;28;20045;-73
2021/12/10 05:40:37;;;;;;;8.40;3.85;;;3.60;99.90;;;;;;5004638;28;20034;-72
2021/12/10 05:43:03;;;;;;;10.15;3.55;;;3.70;99.90;;;;;;5000357;28;20033;-72
2021/12/10 05:45:30;;;;;;;12.10;4.25;;;3.60;99.90;;;;;;5008695;28;20029;-73
2021/12/10 05:47:57;;;;;;;10.85;4.75;;;3.70;99.90;;;;;;5003985;28;20026;-74
2021/12/10 05:50:26;;;;;;;13.40;4.40;;;3.70;99.90;;;;;;5008581;28;20027;-73
2021/12/10 05:52:52;;;;;;;15.32;4.38;;;3.70;99.90;;;;;;5007175;28;20072;-73
2021/12/10 05:55:19;;;;;;;10.38;3.50;;;3.60;99.90;;;;;;4989448;28;20107;-73
2021/12/10 05:57:44;;;;;;;17.00;3.95;;;3.70;99.90;;;;;;5004136;28;20065;-74
2021/12/10 06:00:17;;;;;;;10.48;3.75;;;3.60;99.90;;;;;;5007167;28;20026;-73
2021/12/10 06:02:43;;;;;;;7.35;3.53;;;3.70;99.90;;;;;;5002593;28;20027;-73
2021/12/10 06:05:09;;;;;;;15.43;4.05;;;3.70;99.90;;;;;;4996314;28;20076;-73
2021/12/10 06:07:36;;;;;;;9.05;2.65;;;3.70;99.90;;;;;;4989168;28;20470;-73
2021/12/10 06:10:03;;;;;;;9.60;3.35;;;3.70;99.90;;;;;;4989364;28;20031;-74
2021/12/10 06:12:29;;;;;;;19.38;3.83;;;3.70;99.90;;;;;;4991496;28;20030;-73
2021/12/10 06:14:54;;;;;;;12.13;3.78;;;3.70;99.90;;;;;;4999764;28;20030;-74
2021/12/10 06:17:20;;;;;;;9.90;4.30;;;3.70;99.90;;;;;;5006979;28;20066;-74
2021/12/10 06:19:46;;;;;;;7.63;3.55;;;3.60;99.90;;;;;;5007210;28;20037;-72
2021/12/10 06:22:12;;;;;;;13.68;3.97;;;3.70;99.90;;;;;;5006498;28;20027;-73
2021/12/10 06:24:37;;;;;;;11.93;3.72;;;3.70;99.90;;;;;;5006726;28;20154;-73
2021/12/10 06:27:06;;;;;;;15.43;5.15;;;3.70;99.90;;;;;;4998782;28;20035;-74
2021/12/10 06:29:31;;;;;;;7.40;2.97;;;3.70;99.90;;;;;;4988747;28;20099;-73
2021/12/10 06:31:57;;;;;;;7.70;3.70;;;3.70;99.90;;;;;;4988221;28;20027;-75
2021/12/10 06:34:24;;;;;;;13.95;4.35;;;3.70;99.90;;;;;;4988657;28;20038;-73
2021/12/10 06:36:51;;;;;;;11.10;4.25;;;3.70;99.90;;;;;;4986394;28;20034;-74
2021/12/10 06:39:20;;;;;;;11.52;4.30;;;3.70;99.90;;;;;;5007607;28;20034;-74
2021/12/10 06:41:50;;;;;;;8.85;3.85;;;3.70;99.90;;;;;;4995012;28;20023;-73
2021/12/10 06:44:17;;;;;;;11.30;4.75;;;3.70;99.90;;;;;;4988539;28;20094;-73
2021/12/10 06:46:44;;;;;;;14.98;4.10;;;3.60;99.90;;;;;;4987889;28;20125;-73
2021/12/10 06:49:10;;;;;;;11.75;3.95;;;3.60;99.90;;;;;;4996229;28;20038;-72
2021/12/10 06:51:36;;;;;;;11.13;4.65;;;3.60;99.90;;;;;;5007025;28;20034;-74
2021/12/10 06:54:02;;;;;;;10.07;4.03;;;3.60;99.90;;;;;;5006087;28;20050;-74
2021/12/10 06:56:29;;;;;;;6.45;3.25;;;3.60;99.90;;;;;;5005764;28;20583;-74
2021/12/10 06:58:55;;;;;;;9.98;3.78;;;3.60;99.90;;;;;;5002255;28;20034;-75
2021/12/10 07:01:33;;;;;;;8.85;4.43;;;3.60;99.90;;;;;;4992760;28;20033;-74
2021/12/10 07:04:02;;;;;;;11.13;4.55;;;3.60;99.90;;;;;;5007234;28;20037;-73
2021/12/10 07:06:29;;;;;;;12.50;4.32;;;3.60;99.90;;;;;;5007449;28;20027;-76
2021/12/10 07:08:56;;;;;;;8.77;4.20;;;3.60;99.90;;;;;;5006223;28;20057;-74
2021/12/10 07:11:24;;;;;;;13.18;3.80;;;3.60;99.90;;;;;;5001445;28;20054;-74
2021/12/10 07:13:55;;;;;;;9.50;3.72;;;3.60;99.90;;;;;;4997309;28;20046;-74
2021/12/10 07:16:24;;;;;;;14.55;4.88;;;3.60;99.90;;;;;;5006802;28;20034;-74
2021/12/10 07:18:54;;;;;;;15.80;4.88;;;3.70;99.90;;;;;;5006681;28;20046;-75
2021/12/10 07:21:20;;;;;;;11.85;4.63;;;3.60;99.90;;;;;;5005584;28;20045;-75
2021/12/10 07:23:46;;;;;;;17.10;5.03;;;3.70;99.90;;;;;;5002904;28;20031;-74
2021/12/10 07:26:13;;;;;;;15.48;5.38;;;3.70;99.90;;;;;;5007044;28;20038;-73
2021/12/10 07:28:40;;;;;;;12.15;4.90;;;3.70;99.90;;;;;;5006057;28;20038;-73
2021/12/10 07:31:07;;;;;;;15.38;4.75;;;3.70;99.90;;;;;;4998351;28;20027;-74
2021/12/10 07:33:33;;;;;;;14.35;5.10;;;3.60;99.90;;;;;;5007086;28;20029;-74
2021/12/10 07:35:59;;;;;;;23.30;5.28;;;3.70;99.90;;;;;;5006725;28;20085;-75
2021/12/10 07:38:26;;;;;;;13.63;4.10;;;3.60;99.90;;;;;;5007251;28;20042;-74
2021/12/10 07:40:53;;;;;;;11.40;4.95;;;3.60;99.90;;;;;;5006455;28;20028;-74
2021/12/10 07:43:21;;;;;;;13.70;4.85;;;3.60;99.90;;;;;;5000914;28;20031;-75
2021/12/10 07:45:51;;;;;;;8.73;3.78;;;3.60;99.90;;;;;;4992784;28;20090;-76
2021/12/10 07:48:22;;;;;;;13.90;5.20;;;3.60;99.90;;;;;;4996773;28;20391;-75
2021/12/10 07:50:58;;;;;;;15.75;5.85;;;3.60;99.90;;;;;;5007005;28;20042;-74
2021/12/10 07:53:26;;;;;;;12.43;4.03;;;3.60;99.90;;;;;;4995925;28;20033;-76
2021/12/10 07:55:52;;;;;;;18.00;5.43;;;3.60;99.90;;;;;;5004017;28;20368;-76
2021/12/10 07:58:19;;;;;;;12.05;4.80;;;3.60;99.90;;;;;;5006589;28;20494;-74
2021/12/10 08:00:47;;;;;;;14.98;4.75;;;3.60;99.90;;;;;;5004665;28;20049;-75
2021/12/10 08:03:13;;;;;;;15.18;5.20;;;3.60;99.90;;;;;;5004988;28;20054;-73
2021/12/10 08:05:40;;;;;;;10.10;4.82;;;3.70;99.90;;;;;;5000764;28;20097;-73
2021/12/10 08:08:06;;;;;;;9.50;4.20;;;3.70;99.90;;;;;;4985368;28;20125;-73
2021/12/10 08:10:34;;;;;;;12.75;4.35;;;3.70;99.90;;;;;;4986735;28;20027;-74
2021/12/10 08:13:00;;;;;;;15.77;5.90;;;3.70;99.90;;;;;;5006284;28;20129;-76
2021/12/10 08:15:26;;;;;;;12.20;5.00;;;3.70;99.90;;;;;;5004311;28;20030;-73
2021/12/10 08:17:51;;;;;;;13.57;4.05;;;3.70;99.90;;;;;;4994394;28;20059;-73
2021/12/10 08:20:23;;;;;;;20.17;5.30;;;3.70;99.90;;;;;;5020128;28;20037;-74
2021/12/10 08:22:51;;;;;;;12.93;4.90;;;3.70;99.90;;;;;;5006308;28;20026;-75
2021/12/10 08:25:20;;;;;;;16.05;5.28;;;3.70;99.90;;;;;;5006657;28;20033;-74
2021/12/10 08:27:46;;;;;;;15.48;5.38;;;3.60;99.90;;;;;;4999350;28;20085;-74
2021/12/10 08:30:15;;;;;;;8.57;2.97;;;3.70;99.90;;;;;;4993730;28;20411;-75
2021/12/10 08:32:42;;;;;;;16.17;4.40;;;3.70;99.90;;;;;;4997548;28;20418;-74
2021/12/10 08:35:13;;;;;;;11.57;4.63;;;4.00;99.90;;;;;;5001582;28;20034;-76
2021/12/10 08:37:39;;;;;;;12.68;3.78;;;4.40;99.90;;;;;;5004030;28;20145;-75
2021/12/10 08:40:11;;;;;;;14.95;5.50;;;4.80;99.90;;;;;;4999144;28;20087;-76
2021/12/10 08:42:37;;;;;;;11.40;4.70;;;5.00;99.90;;;;;;4993053;28;20035;-76
2021/12/10 08:45:05;;;;;;;12.15;5.07;;;5.10;99.90;;;;;;4985982;28;20038;-74
2021/12/10 08:47:30;;;;;;;19.30;4.57;;;5.20;99.90;;;;;;4985616;28;20034;-74
2021/12/10 08:49:56;;;;;;;18.10;4.75;;;5.40;99.90;;;;;;4996728;28;20031;-76
2021/12/10 08:52:23;;;;;;;11.32;5.28;;;5.30;99.90;;;;;;5013842;28;20027;-75
2021/12/10 08:54:51;;;;;;;14.65;5.40;;;5.50;99.90;;;;;;5002723;28;20085;-76
2021/12/10 08:57:22;;;;;;;10.38;4.40;;;5.40;99.90;;;;;;5003600;28;20046;-76
2021/12/10 08:59:51;;;;;;;11.45;5.13;;;5.40;99.90;;;;;;5004311;28;20023;-76
2021/12/10 09:02:19;;;;;;;12.77;4.97;;;5.40;99.90;;;;;;5001617;28;20442;-75
2021/12/10 09:04:46;;;;;;;12.00;3.88;;;5.40;99.90;;;;;;4996620;28;20030;-74
2021/12/10 09:07:15;;;;;;;13.65;5.38;;;5.40;99.90;;;;;;4998992;28;20038;-73
2021/12/10 09:09:43;;;;;;;11.77;5.13;;;5.50;99.90;;;;;;5003713;28;20062;-73
2021/12/10 09:12:14;;;;;;;27.10;5.25;;;5.80;99.90;;;;;;5002691;28;20050;-73
2021/12/10 09:14:45;;;;;;;13.07;4.75;;;6.10;99.90;;;;;;5002557;28;20037;-73
2021/12/10 09:17:14;;;;;;;6.60;3.53;;;6.40;99.90;;;;;;4999009;28;20034;-74
2021/12/10 09:19:42;;;;;;;9.82;4.00;;;6.70;99.90;;;;;;5001180;28;20114;-75
2021/12/10 09:22:09;;;;;;;13.82;5.35;;;7.00;99.90;;;;;;5003197;28;20015;-75
2021/12/10 09:24:37;;;;;;;13.80;4.55;;;7.40;99.90;;;;;;5003338;28;20470;-74
2021/12/10 09:27:03;;;;;;;10.15;4.30;;;7.60;99.90;;;;;;5002881;28;20026;-75
2021/12/10 09:29:35;;;;;;;12.93;4.68;;;7.90;99.90;;;;;;5001825;28;20073;-75
2021/12/10 09:32:07;;;;;;;10.20;3.97;;;8.00;99.90;;;;;;5005357;28;20029;-75
2021/12/10 09:34:32;;;;;;;15.18;5.65;;;8.20;99.90;;;;;;5001102;28;20034;-74
2021/12/10 09:36:58;;;;;;;8.82;4.43;;;8.60;99.90;;;;;;5022999;28;20045;-74
2021/12/10 09:39:39;;;;;;;14.00;5.20;;;8.80;99.90;;;;;;5011604;28;20484;-76
2021/12/10 09:42:06;;;;;;;10.43;5.30;;;8.90;99.90;;;;;;5004045;28;20061;-73
2021/12/10 09:44:32;;;;;;;9.65;4.38;;;9.00;99.90;;;;;;5001556;28;20041;-75
2021/12/10 09:46:59;;;;;;;11.52;4.82;;;9.10;99.90;;;;;;4999505;28;20463;-76
2021/12/10 09:49:27;;;;;;;10.25;4.80;;;9.20;99.90;;;;;;5004702;28;20030;-75
2021/12/10 09:51:59;;;;;;;7.55;3.63;;;9.30;99.90;;;;;;5005106;28;20026;-77
2021/12/10 09:54:28;;;;;;;8.70;4.32;;;9.50;99.90;;;;;;5004871;28;20077;-76
2021/12/10 09:56:58;;;;;;;11.45;4.97;;;9.40;99.90;;;;;;5003541;28;20093;-76
2021/12/10 09:59:24;;;;;;;18.00;5.30;;;9.00;99.90;;;;;;5004884;28;20451;-75
2021/12/10 10:01:52;;;;;;;9.27;4.70;;;8.50;99.90;;;;;;5004352;28;20060;-75
2021/12/10 10:04:21;;;;;;;15.18;4.95;;;8.40;99.90;;;;;;5002451;28;20507;-76
2021/12/10 10:06:57;;;;;;;6.57;3.20;;;8.40;99.90;;;;;;5003577;28;20382;-74
2021/12/10 10:09:26;;;;;;;15.40;5.45;;;8.60;99.90;;;;;;5004516;28;20026;-72
2021/12/10 10:12:01;;;;;;;8.52;3.88;;;8.80;99.90;;;;;;5004783;28;20026;-74
2021/12/10 10:14:27;;;;;;;;;;;9.10;99.90;;;;;;5005253;28;20033;-75
2021/12/10 10:16:54;;;;;;;13.32;4.60;;;9.40;99.90;;;;;;5002475;28;20020;-73
2021/12/10 10:19:21;;;;;;;8.63;4.15;;;9.70;99.90;;;;;;5001117;28;20046;-74
2021/12/10 10:21:53;;;;;;;11.68;4.78;;;10.00;99.90;;;;;;4999330;28;20058;-74
2021/12/10 10:24:21;;;;;;;9.98;3.95;;;10.20;99.90;;;;;;5012364;28;20023;-75
2021/12/10 10:26:54;;;;;;;10.25;5.35;;;10.30;99.90;;;;;;5005725;28;20031;-73
2021/12/10 10:29:23;;;;;;;13.27;5.40;;;10.30;99.90;;;;;;5006880;28;20085;-75
2021/12/10 10:31:56;;;;;;;10.65;3.80;;;10.40;99.90;;;;;;5005530;28;20038;-75
2021/12/10 10:34:25;;;;;;;12.60;3.97;;;10.50;99.90;;;;;;5006563;28;20069;-75
2021/12/10 10:36:51;;;;;;;8.75;3.78;;;10.10;99.90;;;;;;5008236;28;20042;-75
2021/12/10 10:39:32;;;;;;;10.90;4.55;;;9.40;99.90;;;;;;5006897;28;20041;-74
2021/12/10 10:42:05;;;;;;;7.68;3.85;;;8.80;99.90;;;;;;5006411;28;20031;-73
2021/12/10 10:44:31;;;;;;;13.75;3.80;;;8.20;99.90;;;;;;5006205;28;20034;-73
2021/12/10 10:47:00;;;;;;;9.23;4.00;;;7.80;99.90;;;;;;5008147;28;20061;-74
2021/12/10 10:49:46;;;;;;;9.85;4.13;;;7.50;99.90;;;;;;5006485;28;20030;-73
2021/12/10 10:52:36;;;;;;;11.95;4.05;;;7.20;99.90;;;;;;5006625;28;20840;-73
2021/12/10 10:55:11;;;;;;;8.55;4.10;;;6.90;99.90;;;;;;5007804;28;20053;-74
2021/12/10 10:57:47;;;;;;;10.30;4.25;;;6.70;99.90;;;;;;5011238;28;20065;-73
2021/12/10 11:00:45;;;;;;;8.20;3.67;;;6.40;99.90;;;;;;5002453;28;20058;-73
2021/12/10 11:03:14;;;;;;;9.00;3.88;;;6.20;99.90;;;;;;5003746;28;20478;-77
2021/12/10 11:05:58;;;;;;;13.40;4.10;;;6.10;99.90;;;;;;5004822;28;20038;-72
2021/12/10 11:08:36;;;;;;;10.10;3.75;;;6.10;99.90;;;;;;5007142;28;20039;-72
2021/12/10 11:11:08;;;;;;;12.73;4.47;;;6.10;99.90;;;;;;5000331;28;20034;-73
2021/12/10 11:13:34;;;;;;;9.13;3.78;;;6.10;99.90;;;;;;5005451;28;20022;-74
2021/12/10 11:16:08;;;;;;;8.50;4.68;;;6.60;99.90;;;;;;5006892;28;20125;-73
2021/12/10 11:18:53;;;;;;;15.75;5.20;;;7.50;99.90;;;;;;5006370;28;20104;-73
2021/12/10 11:22:14;;;;;;;8.75;4.82;;;8.60;99.90;;;;;;5007032;28;20030;-75
2021/12/10 11:24:54;;;;;;;9.32;4.65;;;9.60;99.90;;;;;;4990300;28;20050;-74
2021/12/10 11:27:25;;;;;;;16.42;4.55;;;10.10;99.90;;;;;;5006994;28;20022;-74
2021/12/10 11:30:04;;;;;;;13.00;4.75;;;9.70;99.90;;;;;;5006680;28;20431;-74
2021/12/10 11:32:29;;;;;;;6.78;3.17;;;9.10;99.90;;;;;;5006579;28;20041;-72
2021/12/10 11:35:05;;;;;;;8.38;3.30;;;8.60;99.90;;;;;;5005629;28;20359;-73
2021/12/10 11:38:28;;;;;;;9.18;4.32;;;8.10;99.90;;;;;;5004810;28;20066;-73
2021/12/10 11:41:21;;;;;;;10.23;4.32;;;7.70;99.90;;;;;;4972835;28;20039;-74
2021/12/10 11:44:21;;;;;;;7.05;3.65;;;7.30;99.90;;;;;;5005341;28;20034;-73
2021/12/10 11:47:39;;;;;;;10.35;4.18;;;7.00;99.90;;;;;;4999579;28;20030;-73
2021/12/10 11:49:42;;;;;;;8.65;4.30;;;6.80;99.90;;;;;;4996494;28;20046;-73
2021/12/10 11:52:13;;;;;;;7.22;3.22;;;6.70;99.90;;;;;;5001142;28;21055;-73
2021/12/10 11:54:43;;;;;;;10.95;3.95;;;6.60;99.90;;;;;;4990793;28;20051;-74
2021/12/10 11:57:39;;;;;;;8.32;3.50;;;6.60;99.90;;;;;;5005800;28;20048;-73
2021/12/10 12:00:10;;;;;;;6.70;3.72;;;6.50;99.90;;;;;;4998804;28;20027;-74
2021/12/10 12:02:46;;;;;;;8.45;3.88;;;6.40;99.90;;;;;;5004510;28;20032;-73
2021/12/10 12:05:16;;;;;;;10.80;3.95;;;6.30;99.90;;;;;;5005703;28;20030;-73
2021/12/10 12:07:44;;;;;;;7.65;3.83;;;6.30;99.90;;;;;;5003294;28;20022;-73
2021/12/10 12:10:37;;;;;;;9.38;3.83;;;6.30;99.90;;;;;;5005291;28;20034;-73
2021/12/10 12:13:27;;;;;;;10.38;3.78;;;6.20;99.90;;;;;;5005837;28;20037;-76
2021/12/10 12:16:14;;;;;;;9.27;4.30;;;6.30;99.90;;;;;;5001400;28;20030;-74
2021/12/10 12:18:52;;;;;;;11.85;3.33;;;6.30;99.90;;;;;;5001850;28;20087;-74
2021/12/10 12:27:05;;;;;;;9.52;2.90;;;6.40;99.90;;;;;;4986380;28;20097;-75
2021/12/10 12:29:39;;;;;;;15.05;4.70;;;6.40;99.90;;;;;;4984929;28;20026;-75
2021/12/10 12:32:20;;;;;;;6.88;4.03;;;6.30;99.90;;;;;;4984142;28;20121;-73
2021/12/10 12:34:46;;;;;;;13.18;4.55;;;6.30;99.90;;;;;;4995650;28;20149;-73
2021/12/10 12:37:16;;;;;;;9.60;3.95;;;6.20;99.90;;;;;;5004311;28;20054;-74
2021/12/10 12:39:52;;;;;;;9.40;3.88;;;6.20;99.90;;;;;;5003628;28;20052;-75
2021/12/10 12:42:22;;;;;;;8.13;3.60;;;6.20;99.90;;;;;;5003267;28;20038;-77
2021/12/10 12:44:54;;;;;;;12.00;4.25;;;6.10;99.90;;;;;;4995643;28;20479;-74
2021/12/10 12:47:26;;;;;;;12.02;4.53;;;6.10;99.90;;;;;;4998153;28;20034;-73
2021/12/10 12:50:04;;;;;;;9.32;4.05;;;6.10;99.90;;;;;;4993725;28;20061;-73
2021/12/10 12:52:49;;;;;;;8.30;3.63;;;6.10;99.90;;;;;;5001985;28;20042;-74
2021/12/10 12:55:14;;;;;;;8.90;3.22;;;6.10;99.90;;;;;;5004575;28;20030;-74
2021/12/10 12:57:40;;;;;;;10.32;3.38;;;6.10;99.90;;;;;;4983953;28;20105;-74
2021/12/10 13:00:12;;;;;;;11.60;4.22;;;6.10;99.90;;;;;;4985814;28;20082;-74
2021/12/10 13:02:38;;;;;;;9.05;3.13;;;6.10;99.90;;;;;;5002121;28;20034;-74
2021/12/10 13:05:06;;;;;;;6.72;3.10;;;6.10;99.90;;;;;;5002280;28;20026;-73
2021/12/10 13:07:32;;;;;;;8.90;2.75;;;6.10;99.90;;;;;;5000463;28;20042;-75
2021/12/10 13:10:03;;;;;;;7.25;3.58;;;6.10;99.90;;;;;;4988487;28;20039;-74
2021/12/10 13:15:14;;;;;;;8.27;3.85;;;6.20;99.90;;;;;;5004999;28;20090;-74
2021/12/10 13:17:49;;;;;;;13.38;4.15;;;6.30;99.90;;;;;;4999095;28;20365;-74
2021/12/10 13:20:35;;;;;;;9.20;3.83;;;6.40;99.90;;;;;;5000845;28;20030;-76
2021/12/10 13:23:08;;;;;;;12.02;3.75;;;6.40;99.90;;;;;;4995365;28;20040;-75
2021/12/10 13:25:37;;;;;;;5.82;2.90;;;6.50;99.90;;;;;;4987348;28;20407;-75